Eau Claire, Pennsylvania
Current Conditions -  °F | °C
As of 9:55 AM on Wednesday 26 Nov 2014 (Local Time) from KFKL Reporting Station
Overcast Overcast  
Wind Chill: 23°   Ceiling: 7500
Heat Index: 30°   Visibility: 10mi
Dew Point: 23°   Wind: 7mph
Humidity: 75%   Direction: 50°NE
Pressure: 30.09"   Gusts: NA
Location:  41.14°N, 79.8°W
Report Text: KFKL 261455Z AUTO 05006KT 10SM BKN075 OVC090 M01/M05 A3009 RMK AO1 54000
Loading
Personal Weather Stations






























Interactive Weather Map New forecast layout! Learn more

10-Day Weather Forecast

Advertisements
Track Severe Weather on mobile